Time;durP1;ratioP1;P1;durP2;ratioP2;P2;SDS_P1;SDS_P2;PMS_P1;PMS_P2;Temp;Humidity;BMP_temperature;BMP_pressure;BME280_temperature;BME280_humidity;BME280_pressure;Samples;Min_cycle;Max_cycle;Signal;HPM_P1;HPM_P2
2021/03/04 00:02:02;;;;;;;1999.90;999.90;;;8.20;99.90;;;;;;4995294;28;20155;-86
2021/03/04 00:08:14;;;;;;;1999.90;999.90;;;8.20;99.90;;;;;;4974941;28;20190;-86
2021/03/04 00:14:44;;;;;;;1999.90;999.90;;;8.00;99.90;;;;;;4980195;28;20179;-87
2021/03/04 00:20:51;;;;;;;;;;;;;;;;;;;;;
2021/03/04 00:23:25;;;;;;;1999.90;999.90;;;7.80;99.90;;;;;;4995537;28;20170;-87
2021/03/04 00:26:08;;;;;;;1999.90;999.90;;;7.70;99.90;;;;;;4994545;28;20676;-87
2021/03/04 00:29:38;;;;;;;1999.90;999.90;;;7.60;99.90;;;;;;4995275;28;20197;-87
2021/03/04 00:35:31;;;;;;;1999.90;999.90;;;7.50;99.90;;;;;;4936466;29;20169;-87
2021/03/04 00:42:05;;;;;;;1999.90;999.90;;;7.50;99.90;;;;;;4936711;29;20247;-87
2021/03/04 00:44:44;;;;;;;1999.90;999.90;;;7.50;99.90;;;;;;4934368;29;20229;-87
2021/03/04 00:47:43;;;;;;;;;;;;;;;;;;;;;
2021/03/04 00:50:10;;;;;;;1999.90;999.90;;;7.40;99.90;;;;;;4954863;29;20184;-87
2021/03/04 00:53:13;;;;;;;1999.90;999.90;;;7.40;99.90;;;;;;4987500;28;20637;-87
2021/03/04 00:56:05;;;;;;;1999.90;999.90;;;7.40;99.90;;;;;;5015348;28;20629;-87
2021/03/04 00:58:51;;;;;;;1999.90;999.90;;;7.30;99.90;;;;;;5030594;28;20196;-87
2021/03/04 01:01:37;;;;;;;1999.90;999.90;;;7.40;99.90;;;;;;5013897;28;20696;-88
2021/03/04 01:04:20;;;;;;;1999.90;999.90;;;7.40;99.90;;;;;;5015210;28;20150;-88
2021/03/04 01:06:56;;;;;;;;;;;;;;;;;;;;;
2021/03/04 01:09:30;;;;;;;1999.90;999.90;;;7.40;99.90;;;;;;5015016;28;20172;-88
2021/03/04 01:12:19;;;;;;;1999.90;999.90;;;7.40;99.90;;;;;;5015274;28;20170;-89
2021/03/04 01:15:31;;;;;;;1999.90;999.90;;;7.30;99.90;;;;;;5013798;28;20169;-88
2021/03/04 01:18:10;;;;;;;;;;;;;;;;;;;;;
2021/03/04 01:20:51;;;;;;;1999.90;999.90;;;7.50;99.90;;;;;;5014974;28;20176;-86
2021/03/04 01:23:20;;;;;;;1999.90;999.90;;;7.40;99.90;;;;;;5030190;28;20161;-86
2021/03/04 01:25:49;;;;;;;1999.90;999.90;;;7.40;99.90;;;;;;5015146;28;20189;-86
2021/03/04 01:29:03;;;;;;;1999.90;999.90;;;7.50;99.90;;;;;;5013952;28;20193;-86
2021/03/04 01:31:21;;;;;;;1999.90;999.90;;;7.50;99.90;;;;;;5010825;28;20185;-86
2021/03/04 01:33:51;;;;;;;1999.90;999.90;;;7.50;99.90;;;;;;5014859;28;20197;-87
2021/03/04 01:36:36;;;;;;;;;;;;;;;;;;;;;
2021/03/04 01:39:28;;;;;;;1999.90;999.90;;;7.50;99.90;;;;;;5014573;28;20521;-86
2021/03/04 01:43:06;;;;;;;1999.90;999.90;;;7.60;99.90;;;;;;5014718;28;20561;-86
2021/03/04 01:46:02;;;;;;;1999.90;999.90;;;7.70;99.90;;;;;;5013529;28;20189;-87
2021/03/04 01:48:32;;;;;;;1999.90;999.90;;;7.80;99.90;;;;;;5014552;28;20169;-87
2021/03/04 01:51:52;;;;;;;1999.90;999.90;;;7.70;99.90;;;;;;5013766;28;20565;-86
2021/03/04 01:54:18;;;;;;;1999.90;999.90;;;7.70;99.90;;;;;;4992797;28;20188;-87
2021/03/04 01:57:22;;;;;;;;;;;;;;;;;;;;;
2021/03/04 02:00:15;;;;;;;1999.90;999.90;;;7.70;99.90;;;;;;5015387;28;20385;-87
2021/03/04 02:06:32;;;;;;;;;;;;;;;;;;;;;
2021/03/04 02:16:44;;;;;;;1999.90;999.90;;;7.90;99.90;;;;;;4910250;29;20183;-85
2021/03/04 02:23:57;;;;;;;1999.90;999.90;;;7.90;99.90;;;;;;4966941;28;20183;-85
2021/03/04 02:27:13;;;;;;;1999.90;999.90;;;7.90;99.90;;;;;;4940867;28;20693;-85
2021/03/04 02:30:30;;;;;;;1999.90;999.90;;;7.90;99.90;;;;;;4954161;28;20260;-85
2021/03/04 02:33:07;;;;;;;1999.90;999.90;;;8.00;99.90;;;;;;4929045;29;20644;-85
2021/03/04 02:35:57;;;;;;;1999.90;999.90;;;8.00;99.90;;;;;;5004208;28;20181;-86
2021/03/04 02:38:30;;;;;;;1999.90;999.90;;;8.00;99.90;;;;;;5009966;28;20186;-85
2021/03/04 02:41:08;;;;;;;1999.90;999.90;;;8.00;99.90;;;;;;5012502;28;20537;-85
2021/03/04 02:43:43;;;;;;;1999.90;999.90;;;7.90;99.90;;;;;;5011714;28;20173;-85
2021/03/04 02:46:16;;;;;;;1999.90;999.90;;;7.90;99.90;;;;;;5012774;28;20182;-85
2021/03/04 02:48:41;;;;;;;1999.90;999.90;;;7.90;99.90;;;;;;5012546;28;20620;-85
2021/03/04 02:51:20;;;;;;;1999.90;999.90;;;7.90;99.90;;;;;;5012749;28;20216;-85
2021/03/04 02:57:48;;;;;;;;;;;;;;;;;;;;;
2021/03/04 03:00:20;;;;;;;1999.90;999.90;;;7.90;99.90;;;;;;5012217;28;20166;-86
2021/03/04 03:02:50;;;;;;;1999.90;999.90;;;8.00;99.90;;;;;;5012992;28;20236;-86
2021/03/04 03:05:28;;;;;;;1999.90;999.90;;;7.90;99.90;;;;;;5012599;28;20253;-86
2021/03/04 03:11:55;;;;;;;1999.90;999.90;;;8.00;99.90;;;;;;4940016;28;20180;-85
2021/03/04 03:14:21;;;;;;;1999.90;999.90;;;7.90;99.90;;;;;;5102919;22;20239;-80
2021/03/04 03:16:47;;;;;;;1999.90;999.90;;;7.90;99.90;;;;;;5035259;28;20276;-80
2021/03/04 03:19:12;;;;;;;1999.90;999.90;;;7.90;99.90;;;;;;5035116;28;20195;-80
2021/03/04 03:21:38;;;;;;;1999.90;999.90;;;7.90;99.90;;;;;;5035367;28;20161;-80
2021/03/04 03:24:05;;;;;;;1999.90;999.90;;;7.80;99.90;;;;;;5035240;28;20172;-80
2021/03/04 03:26:31;;;;;;;1999.90;999.90;;;7.90;99.90;;;;;;5035646;28;20173;-80
2021/03/04 03:28:58;;;;;;;1999.90;999.90;;;7.80;99.90;;;;;;5037065;28;20180;-80
2021/03/04 03:31:27;;;;;;;1999.90;999.90;;;7.90;99.90;;;;;;5039194;28;20165;-80
2021/03/04 03:33:54;;;;;;;1999.90;999.90;;;7.90;99.90;;;;;;5039204;28;20173;-79
2021/03/04 03:36:21;;;;;;;1999.90;999.90;;;7.80;99.90;;;;;;5039125;28;20699;-80
2021/03/04 03:38:47;;;;;;;1999.90;999.90;;;7.70;99.90;;;;;;5039021;28;20246;-79
2021/03/04 03:41:13;;;;;;;1999.90;999.90;;;7.70;99.90;;;;;;5037733;28;20172;-79
2021/03/04 03:43:41;;;;;;;1999.90;999.90;;;7.60;99.90;;;;;;5038778;28;20538;-79
2021/03/04 03:46:10;;;;;;;1999.90;999.90;;;7.70;99.90;;;;;;5037322;28;20521;-80
2021/03/04 03:48:36;;;;;;;1999.90;999.90;;;7.60;99.90;;;;;;5038960;28;20223;-80
2021/03/04 03:51:02;;;;;;;1999.90;999.90;;;7.60;99.90;;;;;;5038822;28;20173;-80
2021/03/04 03:53:27;;;;;;;1999.90;999.90;;;7.60;99.90;;;;;;5039361;28;20169;-79
2021/03/04 03:55:55;;;;;;;1999.90;999.90;;;7.50;99.90;;;;;;5038607;28;20579;-79
2021/03/04 03:58:22;;;;;;;1999.90;999.90;;;7.50;99.90;;;;;;5038593;28;20494;-79
2021/03/04 04:00:49;;;;;;;1999.90;999.90;;;7.40;99.90;;;;;;5038961;28;20211;-80
2021/03/04 04:03:15;;;;;;;1999.90;999.90;;;7.40;99.90;;;;;;5037355;28;20165;-79
2021/03/04 04:05:42;;;;;;;1999.90;999.90;;;7.30;99.90;;;;;;5038216;28;20643;-79
2021/03/04 04:08:07;;;;;;;1999.90;999.90;;;7.30;99.90;;;;;;5038486;28;20170;-79
2021/03/04 04:10:35;;;;;;;1999.90;999.90;;;7.20;99.90;;;;;;5038297;28;20215;-80
2021/03/04 04:13:01;;;;;;;1999.90;999.90;;;7.20;99.90;;;;;;5038202;28;20212;-80
2021/03/04 04:15:29;;;;;;;1999.90;999.90;;;7.10;99.90;;;;;;5038339;28;20181;-79
2021/03/04 04:18:01;;;;;;;1999.90;999.90;;;7.20;99.90;;;;;;5038109;28;20269;-80
2021/03/04 04:20:27;;;;;;;1999.90;999.90;;;7.20;99.90;;;;;;5038320;28;20165;-80
2021/03/04 04:22:55;;;;;;;1999.90;999.90;;;7.20;99.90;;;;;;5037129;28;20223;-80
2021/03/04 04:25:22;;;;;;;1999.90;999.90;;;7.30;99.90;;;;;;5038126;28;20502;-80
2021/03/04 04:27:57;;;;;;;1999.90;999.90;;;7.40;99.90;;;;;;5037746;28;20169;-79
2021/03/04 04:30:24;;;;;;;1999.90;999.90;;;7.30;99.90;;;;;;5038662;28;20234;-79
2021/03/04 04:32:50;;;;;;;1999.90;999.90;;;7.30;99.90;;;;;;5037852;28;20168;-80
2021/03/04 04:35:17;;;;;;;1999.90;999.90;;;7.30;99.90;;;;;;5038445;28;20184;-80
2021/03/04 04:37:43;;;;;;;1999.90;999.90;;;7.40;99.90;;;;;;5038187;28;20521;-80
2021/03/04 04:40:09;;;;;;;1999.90;999.90;;;7.40;99.90;;;;;;5038133;28;20180;-80
2021/03/04 04:42:36;;;;;;;1999.90;999.90;;;7.40;99.90;;;;;;5041096;28;20225;-78
2021/03/04 04:45:03;;;;;;;1999.90;999.90;;;7.40;99.90;;;;;;5054986;28;20172;-79
2021/03/04 04:47:29;;;;;;;1999.90;999.90;;;7.50;99.90;;;;;;5054032;28;20197;-78
2021/03/04 04:49:54;;;;;;;1999.90;999.90;;;7.50;99.90;;;;;;5040925;28;20284;-80
2021/03/04 04:52:20;;;;;;;1999.90;999.90;;;7.50;99.90;;;;;;5038182;28;20195;-80
2021/03/04 04:54:46;;;;;;;1999.90;999.90;;;7.60;99.90;;;;;;5038687;28;20173;-79
2021/03/04 04:57:12;;;;;;;1999.90;999.90;;;7.60;99.90;;;;;;5037655;28;20185;-79
2021/03/04 04:59:38;;;;;;;1999.90;999.90;;;7.60;99.90;;;;;;5037362;28;20192;-79
2021/03/04 05:02:04;;;;;;;1999.90;999.90;;;7.60;99.90;;;;;;5035672;28;20251;-80
2021/03/04 05:04:30;;;;;;;1999.90;999.90;;;7.60;99.90;;;;;;5037469;28;20574;-79
2021/03/04 05:06:55;;;;;;;1999.90;999.90;;;7.60;99.90;;;;;;5037019;28;20173;-79
2021/03/04 05:09:21;;;;;;;1999.90;999.90;;;7.60;99.90;;;;;;5036968;28;20228;-79
2021/03/04 05:11:46;;;;;;;1999.90;999.90;;;7.60;99.90;;;;;;5037123;28;20172;-79
2021/03/04 05:14:12;;;;;;;1999.90;999.90;;;7.70;99.90;;;;;;5037412;28;20208;-79
2021/03/04 05:16:38;;;;;;;1999.90;999.90;;;7.70;99.90;;;;;;5035440;28;20192;-79
2021/03/04 05:19:03;;;;;;;1999.90;999.90;;;7.70;99.90;;;;;;5036732;28;20181;-79
2021/03/04 05:21:29;;;;;;;1999.90;999.90;;;7.80;99.90;;;;;;5036836;28;20196;-79
2021/03/04 05:23:55;;;;;;;1999.90;999.90;;;7.80;99.90;;;;;;5036482;28;20174;-79
2021/03/04 05:26:20;;;;;;;1999.90;999.90;;;7.80;99.90;;;;;;5036510;28;20162;-79
2021/03/04 05:28:46;;;;;;;1999.90;999.90;;;7.80;99.90;;;;;;5036971;28;20404;-79
2021/03/04 05:31:12;;;;;;;1999.90;999.90;;;7.80;99.90;;;;;;5037086;28;20169;-79
2021/03/04 05:33:37;;;;;;;1999.90;999.90;;;7.90;99.90;;;;;;5035321;28;20165;-79
2021/03/04 05:36:03;;;;;;;1999.90;999.90;;;7.90;99.90;;;;;;5036752;28;20168;-78
2021/03/04 05:38:29;;;;;;;1999.90;999.90;;;8.00;99.90;;;;;;5037661;28;20169;-79
2021/03/04 05:40:55;;;;;;;1999.90;999.90;;;7.90;99.90;;;;;;5037979;28;20153;-79
2021/03/04 05:43:21;;;;;;;1999.90;999.90;;;7.90;99.90;;;;;;5037463;28;20641;-79
2021/03/04 05:45:49;;;;;;;1999.90;999.90;;;7.90;99.90;;;;;;5037608;28;20450;-79
2021/03/04 05:48:20;;;;;;;1999.90;999.90;;;7.80;99.90;;;;;;5037534;28;20695;-79
2021/03/04 05:50:50;;;;;;;1999.90;999.90;;;7.80;99.90;;;;;;5035162;28;20652;-79
2021/03/04 05:53:19;;;;;;;1999.90;999.90;;;7.80;99.90;;;;;;5035693;28;20256;-80
2021/03/04 05:55:45;;;;;;;1999.90;999.90;;;7.80;99.90;;;;;;5036983;28;20165;-79
2021/03/04 05:58:12;;;;;;;1999.90;999.90;;;7.80;99.90;;;;;;5034944;28;20196;-79
2021/03/04 06:00:42;;;;;;;1999.90;999.90;;;7.80;99.90;;;;;;5036243;28;20153;-79
2021/03/04 06:03:08;;;;;;;1999.90;999.90;;;7.80;99.90;;;;;;5036746;28;20158;-80
2021/03/04 06:05:34;;;;;;;1999.90;999.90;;;7.80;99.90;;;;;;5035535;28;20169;-80
2021/03/04 06:08:03;;;;;;;1999.90;999.90;;;7.80;99.90;;;;;;5035441;28;20521;-80
2021/03/04 06:10:29;;;;;;;1999.90;999.90;;;7.90;99.90;;;;;;5034709;28;20643;-80
2021/03/04 06:12:55;;;;;;;1999.90;999.90;;;7.80;99.90;;;;;;5035187;28;20173;-80
2021/03/04 06:15:22;;;;;;;1999.90;999.90;;;7.90;99.90;;;;;;5035137;28;20213;-80
2021/03/04 06:17:53;;;;;;;1999.90;999.90;;;8.00;99.90;;;;;;5035334;28;20192;-80
2021/03/04 06:20:19;;;;;;;1999.90;999.90;;;8.10;99.90;;;;;;5037197;28;20158;-80
2021/03/04 06:22:46;;;;;;;1999.90;999.90;;;8.10;99.90;;;;;;5035769;28;20165;-79
2021/03/04 06:25:14;;;;;;;1999.90;999.90;;;8.20;99.90;;;;;;5036551;28;20479;-79
2021/03/04 06:27:42;;;;;;;1999.90;999.90;;;8.20;99.90;;;;;;5036757;28;20169;-79
2021/03/04 06:30:12;;;;;;;1999.90;999.90;;;8.20;99.90;;;;;;5037204;28;20172;-79
2021/03/04 06:32:54;;;;;;;1999.90;999.90;;;8.30;99.90;;;;;;5038121;28;20150;-79
2021/03/04 06:35:21;;;;;;;1999.90;999.90;;;8.30;99.90;;;;;;5035866;28;20164;-79
2021/03/04 06:37:47;;;;;;;1999.90;999.90;;;8.30;99.90;;;;;;5037339;28;20682;-79
2021/03/04 06:40:23;;;;;;;1999.90;999.90;;;8.30;99.90;;;;;;5036136;28;20169;-79
2021/03/04 06:42:50;;;;;;;1999.90;999.90;;;8.30;99.90;;;;;;5037087;28;20516;-80
2021/03/04 06:45:37;;;;;;;1999.90;999.90;;;8.30;99.90;;;;;;5037342;28;20260;-80
2021/03/04 06:48:10;;;;;;;1999.90;999.90;;;8.30;99.90;;;;;;5035402;28;20169;-80
2021/03/04 06:50:38;;;;;;;1999.90;999.90;;;8.30;99.90;;;;;;5036933;28;20173;-80
2021/03/04 06:53:21;;;;;;;1999.90;999.90;;;8.30;99.90;;;;;;5035842;28;20176;-80
2021/03/04 06:56:02;;;;;;;1999.90;999.90;;;8.30;99.90;;;;;;5036849;28;20579;-80
2021/03/04 06:58:38;;;;;;;1999.90;999.90;;;8.30;99.90;;;;;;5036970;28;20185;-80
2021/03/04 07:01:11;;;;;;;1999.90;999.90;;;8.40;99.90;;;;;;5036542;28;20165;-79
2021/03/04 07:03:39;;;;;;;1999.90;999.90;;;8.40;99.90;;;;;;5039105;28;20169;-80
2021/03/04 07:06:07;;;;;;;1999.90;999.90;;;8.40;99.90;;;;;;5040214;28;20161;-80
2021/03/04 07:08:35;;;;;;;1999.90;999.90;;;8.40;99.90;;;;;;5040538;28;20183;-80
2021/03/04 07:11:03;;;;;;;1999.90;999.90;;;8.40;99.90;;;;;;5039623;28;20169;-80
2021/03/04 07:13:31;;;;;;;1999.90;999.90;;;8.40;99.90;;;;;;5040811;28;20215;-80
2021/03/04 07:16:05;;;;;;;1999.90;999.90;;;8.40;99.90;;;;;;5042228;28;20169;-80
2021/03/04 07:18:38;;;;;;;1999.90;999.90;;;8.40;99.90;;;;;;5040622;28;20154;-81
2021/03/04 07:21:07;;;;;;;1999.90;999.90;;;8.50;99.90;;;;;;5040373;28;20203;-80
2021/03/04 07:23:39;;;;;;;1999.90;999.90;;;8.50;99.90;;;;;;5040337;28;20172;-80
2021/03/04 07:26:05;;;;;;;1999.90;999.90;;;8.50;99.90;;;;;;5040479;28;20149;-80
2021/03/04 07:28:32;;;;;;;1999.90;999.90;;;8.50;99.90;;;;;;5039301;28;20180;-80
2021/03/04 07:30:58;;;;;;;1999.90;999.90;;;8.60;99.90;;;;;;5040508;28;20162;-80
2021/03/04 07:33:25;;;;;;;1999.90;999.90;;;8.50;99.90;;;;;;5038951;28;20168;-80
2021/03/04 07:35:52;;;;;;;1999.90;999.90;;;8.60;99.90;;;;;;5040526;28;20168;-80
2021/03/04 07:38:28;;;;;;;1999.90;999.90;;;8.60;99.90;;;;;;5039865;28;20245;-80
2021/03/04 07:41:01;;;;;;;1999.90;999.90;;;8.60;99.90;;;;;;5039555;28;20145;-80
2021/03/04 07:43:26;;;;;;;1999.90;999.90;;;8.50;99.90;;;;;;5040330;28;20164;-80
2021/03/04 07:45:52;;;;;;;1999.90;999.90;;;8.50;99.90;;;;;;5038449;28;20656;-80
2021/03/04 07:48:18;;;;;;;1999.90;999.90;;;8.50;99.90;;;;;;5039841;28;20149;-80
2021/03/04 07:50:56;;;;;;;1999.90;999.90;;;8.50;99.90;;;;;;5039742;28;20615;-80
2021/03/04 07:53:22;;;;;;;1999.90;999.90;;;8.50;99.90;;;;;;5038406;28;20914;-80
2021/03/04 07:55:48;;;;;;;1999.90;999.90;;;8.50;99.90;;;;;;5039351;28;20170;-80
2021/03/04 07:58:14;;;;;;;1999.90;999.90;;;8.50;99.90;;;;;;5039719;28;20268;-81
2021/03/04 08:00:41;;;;;;;1999.90;999.90;;;8.50;99.90;;;;;;5040598;28;20172;-80
2021/03/04 08:03:06;;;;;;;1999.90;999.90;;;8.50;99.90;;;;;;5039055;28;20309;-80
2021/03/04 08:05:35;;;;;;;1999.90;999.90;;;8.60;99.90;;;;;;5039675;28;20204;-80
2021/03/04 08:08:11;;;;;;;1999.90;999.90;;;8.60;99.90;;;;;;5039364;28;20245;-80
2021/03/04 08:10:54;;;;;;;1999.90;999.90;;;8.60;99.90;;;;;;5038881;28;20226;-79
2021/03/04 08:13:34;;;;;;;1999.90;999.90;;;8.60;99.90;;;;;;5039738;28;20154;-79
2021/03/04 08:16:00;;;;;;;1999.90;999.90;;;8.50;99.90;;;;;;5040300;28;20245;-80
2021/03/04 08:18:26;;;;;;;1999.90;999.90;;;8.60;99.90;;;;;;5040344;28;20192;-80
2021/03/04 08:21:04;;;;;;;1999.90;999.90;;;8.60;99.90;;;;;;5040218;28;20169;-80
2021/03/04 08:23:40;;;;;;;1999.90;999.90;;;8.60;99.90;;;;;;5040284;28;20146;-79
2021/03/04 08:26:06;;;;;;;1999.90;999.90;;;8.60;99.90;;;;;;5041442;28;20153;-80
2021/03/04 08:28:32;;;;;;;1999.90;999.90;;;8.60;99.90;;;;;;5040298;28;20161;-80
2021/03/04 08:31:06;;;;;;;1999.90;999.90;;;8.60;99.90;;;;;;5040204;28;20195;-80
2021/03/04 08:33:32;;;;;;;1999.90;999.90;;;8.70;99.90;;;;;;5040076;28;20157;-80
2021/03/04 08:36:00;;;;;;;1999.90;999.90;;;8.70;99.90;;;;;;5040355;28;20165;-79
2021/03/04 08:38:27;;;;;;;1999.90;999.90;;;8.70;99.90;;;;;;5040334;28;20568;-79
2021/03/04 08:40:55;;;;;;;1999.90;999.90;;;8.80;99.90;;;;;;5038090;28;20177;-80
2021/03/04 08:43:23;;;;;;;1999.90;999.90;;;8.90;99.90;;;;;;5040896;28;20164;-79
2021/03/04 08:45:53;;;;;;;1999.90;999.90;;;8.90;99.90;;;;;;5049883;28;20165;-78
2021/03/04 08:48:19;;;;;;;1999.90;999.90;;;9.00;99.90;;;;;;5050695;28;20244;-80
2021/03/04 08:50:50;;;;;;;1999.90;999.90;;;9.00;99.90;;;;;;5040773;28;20161;-79
2021/03/04 08:53:27;;;;;;;1999.90;999.90;;;9.10;99.90;;;;;;5039575;28;20540;-80
2021/03/04 08:55:54;;;;;;;1999.90;999.90;;;9.10;99.90;;;;;;5038718;28;20161;-79
2021/03/04 08:58:22;;;;;;;1999.90;999.90;;;9.10;99.90;;;;;;5039527;28;20225;-79
2021/03/04 09:00:56;;;;;;;1999.90;999.90;;;9.20;99.90;;;;;;5038526;28;20544;-80
2021/03/04 09:03:23;;;;;;;1999.90;999.90;;;9.30;99.90;;;;;;5038132;28;20640;-80
2021/03/04 09:05:50;;;;;;;1999.90;999.90;;;9.30;99.90;;;;;;5037878;28;20540;-80
2021/03/04 09:08:17;;;;;;;1999.90;999.90;;;9.30;99.90;;;;;;5039145;28;20173;-79
2021/03/04 09:10:50;;;;;;;1999.90;999.90;;;9.40;99.90;;;;;;5039037;28;20169;-80
2021/03/04 09:13:23;;;;;;;1999.90;999.90;;;9.50;99.90;;;;;;5037611;28;20172;-80
2021/03/04 09:15:52;;;;;;;1999.90;999.90;;;9.60;99.90;;;;;;5037312;28;20192;-80
2021/03/04 09:18:19;;;;;;;1999.90;999.90;;;9.60;99.90;;;;;;5039267;28;20211;-80
2021/03/04 09:20:49;;;;;;;1999.90;999.90;;;9.70;99.90;;;;;;5037535;28;20175;-80
2021/03/04 09:23:15;;;;;;;1999.90;999.90;;;9.60;99.90;;;;;;5038779;28;20158;-80
2021/03/04 09:25:42;;;;;;;1999.90;999.90;;;9.60;99.90;;;;;;5038930;28;20177;-80
2021/03/04 09:28:12;;;;;;;1999.90;999.90;;;9.70;99.90;;;;;;5038453;28;20164;-80
2021/03/04 09:30:38;;;;;;;1999.90;999.90;;;9.80;99.90;;;;;;5038398;28;20153;-80
2021/03/04 09:33:14;;;;;;;1999.90;999.90;;;9.90;99.90;;;;;;5038119;28;20161;-80
2021/03/04 09:35:39;;;;;;;1999.90;999.90;;;10.00;99.90;;;;;;5037974;28;20184;-80
2021/03/04 09:38:06;;;;;;;1999.90;999.90;;;9.80;99.90;;;;;;5038362;28;20215;-80
2021/03/04 09:40:32;;;;;;;1999.90;999.90;;;9.80;99.90;;;;;;5038473;28;20587;-80
2021/03/04 09:42:57;;;;;;;1999.90;999.90;;;9.80;99.90;;;;;;5038748;28;20157;-80
2021/03/04 09:45:23;;;;;;;1999.90;999.90;;;10.00;99.90;;;;;;5038274;28;20165;-80
2021/03/04 09:47:51;;;;;;;1999.90;999.90;;;10.00;99.90;;;;;;5037825;28;20173;-80
2021/03/04 09:50:22;;;;;;;1999.90;999.90;;;10.00;99.90;;;;;;5038160;28;20479;-80
2021/03/04 09:53:08;;;;;;;1999.90;999.90;;;10.00;99.90;;;;;;5037601;28;20165;-80
2021/03/04 09:55:41;;;;;;;1999.90;999.90;;;10.10;99.90;;;;;;5037846;28;20235;-80
2021/03/04 09:58:11;;;;;;;1999.90;999.90;;;10.20;99.90;;;;;;5037999;28;20185;-80
2021/03/04 10:00:37;;;;;;;1999.90;999.90;;;10.20;99.90;;;;;;5038171;28;20181;-80
2021/03/04 10:03:08;;;;;;;1999.90;999.90;;;10.30;99.90;;;;;;5037519;28;20692;-80
2021/03/04 10:05:44;;;;;;;1999.90;999.90;;;10.30;99.90;;;;;;5038478;28;20150;-80
2021/03/04 10:08:10;;;;;;;1999.90;999.90;;;10.30;99.90;;;;;;5037913;28;20159;-80
2021/03/04 10:10:36;;;;;;;1999.90;999.90;;;10.30;99.90;;;;;;5037760;28;20170;-81
2021/03/04 10:13:02;;;;;;;1999.90;999.90;;;10.20;99.90;;;;;;5036346;28;20184;-80
2021/03/04 10:15:33;;;;;;;1999.90;999.90;;;10.20;99.90;;;;;;5037371;28;20522;-80
2021/03/04 10:18:15;;;;;;;1999.90;999.90;;;10.20;99.90;;;;;;5037887;28;20252;-79
2021/03/04 10:20:46;;;;;;;1999.90;999.90;;;10.20;99.90;;;;;;5037301;28;20160;-80
2021/03/04 10:23:13;;;;;;;1999.90;999.90;;;10.20;99.90;;;;;;5037660;28;20138;-81
2021/03/04 10:25:38;;;;;;;1999.90;999.90;;;10.20;99.90;;;;;;5037862;28;20612;-81
2021/03/04 10:28:05;;;;;;;1999.90;999.90;;;10.10;99.90;;;;;;5036878;28;20173;-81
2021/03/04 10:30:32;;;;;;;1999.90;999.90;;;10.00;99.90;;;;;;5036282;28;20165;-81
2021/03/04 10:32:59;;;;;;;1999.90;999.90;;;10.00;99.90;;;;;;5036199;28;20169;-81
2021/03/04 10:35:25;;;;;;;1999.90;999.90;;;10.10;99.90;;;;;;5036809;28;20180;-81
2021/03/04 10:37:51;;;;;;;1999.90;999.90;;;10.20;99.90;;;;;;5036016;28;20672;-81
2021/03/04 10:40:18;;;;;;;1999.90;999.90;;;10.30;99.90;;;;;;5037184;28;20180;-81
2021/03/04 10:42:44;;;;;;;1999.90;999.90;;;10.30;99.90;;;;;;5037098;28;20161;-81
2021/03/04 10:45:12;;;;;;;1999.90;999.90;;;10.40;99.90;;;;;;5035167;28;20264;-81
2021/03/04 10:47:40;;;;;;;1999.90;999.90;;;10.30;99.90;;;;;;5035016;28;20581;-81
2021/03/04 10:50:07;;;;;;;1999.90;999.90;;;10.20;99.90;;;;;;5037290;28;20536;-81
2021/03/04 10:52:33;;;;;;;1999.90;999.90;;;10.30;99.90;;;;;;5036469;28;20161;-81
2021/03/04 10:54:59;;;;;;;1999.90;999.90;;;10.20;99.90;;;;;;5037152;28;20510;-81
2021/03/04 10:57:24;;;;;;;1999.90;999.90;;;10.20;99.90;;;;;;5036631;28;20199;-81
2021/03/04 10:59:50;;;;;;;1999.90;999.90;;;10.10;99.90;;;;;;5037016;28;20184;-81
2021/03/04 11:02:16;;;;;;;1999.90;999.90;;;10.10;99.90;;;;;;5036004;28;20246;-81
2021/03/04 11:04:41;;;;;;;1999.90;999.90;;;10.00;99.90;;;;;;5036504;28;20586;-81
2021/03/04 11:07:07;;;;;;;1999.90;999.90;;;10.10;99.90;;;;;;5036675;28;20567;-81
2021/03/04 11:09:33;;;;;;;1999.90;999.90;;;10.10;99.90;;;;;;5036753;28;20219;-81
2021/03/04 11:12:02;;;;;;;1999.90;999.90;;;10.20;99.90;;;;;;5036454;28;20193;-81
2021/03/04 11:14:28;;;;;;;1999.90;999.90;;;10.30;99.90;;;;;;5036231;28;20181;-81
2021/03/04 11:16:54;;;;;;;1999.90;999.90;;;10.40;99.90;;;;;;5037364;28;20254;-81
2021/03/04 11:19:19;;;;;;;1999.90;999.90;;;10.50;99.90;;;;;;5037652;28;20161;-81
2021/03/04 11:21:46;;;;;;;1999.90;999.90;;;10.60;99.90;;;;;;5035996;28;20193;-81
2021/03/04 11:24:13;;;;;;;1999.90;999.90;;;10.70;99.90;;;;;;5035949;28;20233;-81
2021/03/04 11:26:39;;;;;;;1999.90;999.90;;;10.80;99.90;;;;;;5036056;28;20173;-81
2021/03/04 11:29:06;;;;;;;1999.90;999.90;;;10.70;99.90;;;;;;5037603;28;20197;-81
2021/03/04 11:31:34;;;;;;;1999.90;999.90;;;10.70;99.90;;;;;;5037760;28;20166;-81
2021/03/04 11:34:00;;;;;;;1999.90;999.90;;;10.70;99.90;;;;;;5037328;28;20640;-81
2021/03/04 11:36:26;;;;;;;1999.90;999.90;;;10.80;99.90;;;;;;5037814;28;20169;-81
2021/03/04 11:38:51;;;;;;;1999.90;999.90;;;10.70;99.90;;;;;;5037987;28;20165;-81
2021/03/04 11:41:17;;;;;;;1999.90;999.90;;;10.60;99.90;;;;;;5037187;28;20172;-81
2021/03/04 11:43:43;;;;;;;1999.90;999.90;;;10.70;99.90;;;;;;5037895;28;20164;-81
2021/03/04 11:46:08;;;;;;;1999.90;999.90;;;10.60;99.90;;;;;;5037745;28;20579;-81
2021/03/04 11:48:34;;;;;;;1999.90;999.90;;;10.70;99.90;;;;;;5038236;28;20710;-82
2021/03/04 11:51:00;;;;;;;1999.90;999.90;;;10.70;99.90;;;;;;5041083;28;20172;-81
2021/03/04 11:53:25;;;;;;;1999.90;999.90;;;10.80;99.90;;;;;;5041372;28;20224;-81
2021/03/04 11:55:51;;;;;;;1999.90;999.90;;;10.80;99.90;;;;;;5041186;28;20173;-82
2021/03/04 11:58:17;;;;;;;1999.90;999.90;;;10.80;99.90;;;;;;5041047;28;20193;-82
2021/03/04 12:00:42;;;;;;;1999.90;999.90;;;10.80;99.90;;;;;;5041003;28;20587;-81
2021/03/04 12:03:08;;;;;;;1999.90;999.90;;;10.70;99.90;;;;;;5040984;28;20165;-81
2021/03/04 12:05:34;;;;;;;1999.90;999.90;;;10.50;99.90;;;;;;5041484;28;20216;-81
2021/03/04 12:08:02;;;;;;;1999.90;999.90;;;10.30;99.90;;;;;;5041745;28;20312;-80
2021/03/04 12:10:28;;;;;;;1999.90;999.90;;;10.20;99.90;;;;;;5040983;28;20173;-80
2021/03/04 12:12:53;;;;;;;1999.90;999.90;;;10.20;99.90;;;;;;5041964;28;20169;-79
2021/03/04 12:15:20;;;;;;;1999.90;999.90;;;10.20;99.90;;;;;;5042176;28;20432;-80
2021/03/04 12:17:46;;;;;;;1999.90;999.90;;;10.10;99.90;;;;;;5055398;28;20173;-80
2021/03/04 12:20:12;;;;;;;1999.90;999.90;;;10.10;99.90;;;;;;5051907;28;20218;-79
2021/03/04 12:22:38;;;;;;;1999.90;999.90;;;10.00;99.90;;;;;;5045300;28;20759;-80
2021/03/04 12:25:05;;;;;;;1999.90;999.90;;;9.90;99.90;;;;;;5042142;28;20195;-80
2021/03/04 12:27:31;;;;;;;1999.90;999.90;;;9.80;99.90;;;;;;5041728;28;20167;-80
2021/03/04 12:29:57;;;;;;;1999.90;999.90;;;9.60;99.90;;;;;;5041773;28;20157;-80
2021/03/04 12:32:23;;;;;;;1999.90;999.90;;;9.60;99.90;;;;;;5042090;28;20219;-80
2021/03/04 12:34:49;;;;;;;1999.90;999.90;;;9.60;99.90;;;;;;5041127;28;20408;-80
2021/03/04 12:37:14;;;;;;;1999.90;999.90;;;9.50;99.90;;;;;;5041163;28;20200;-80
2021/03/04 12:39:40;;;;;;;1999.90;999.90;;;9.40;99.90;;;;;;5042223;28;20158;-80
2021/03/04 12:42:06;;;;;;;1999.90;999.90;;;9.30;99.90;;;;;;5041443;28;20185;-81
2021/03/04 12:44:31;;;;;;;1999.90;999.90;;;9.20;99.90;;;;;;5040633;28;20301;-79
2021/03/04 12:46:57;;;;;;;1999.90;999.90;;;9.10;99.90;;;;;;5040941;28;20169;-80
2021/03/04 12:49:23;;;;;;;1999.90;999.90;;;9.10;99.90;;;;;;5040523;28;20165;-80
2021/03/04 12:51:48;;;;;;;1999.90;999.90;;;9.00;99.90;;;;;;5041249;28;20240;-79
2021/03/04 12:54:14;;;;;;;1999.90;999.90;;;8.80;99.90;;;;;;5040741;28;20176;-80
2021/03/04 12:56:40;;;;;;;1999.90;999.90;;;8.70;99.90;;;;;;5041104;28;20224;-80
2021/03/04 12:59:06;;;;;;;1999.90;999.90;;;8.60;99.90;;;;;;5040502;28;20173;-80
2021/03/04 13:01:32;;;;;;;1999.90;999.90;;;8.60;99.90;;;;;;5040469;28;20160;-81
2021/03/04 13:03:58;;;;;;;1999.90;999.90;;;8.60;99.90;;;;;;5039690;28;20161;-79
2021/03/04 13:06:24;;;;;;;1999.90;999.90;;;8.60;99.90;;;;;;5038583;28;20176;-80
2021/03/04 13:08:51;;;;;;;1999.90;999.90;;;8.60;99.90;;;;;;5040071;28;20396;-80
2021/03/04 13:11:17;;;;;;;1999.90;999.90;;;8.50;99.90;;;;;;5038470;28;20412;-80
2021/03/04 13:13:43;;;;;;;1999.90;999.90;;;8.50;99.90;;;;;;5039854;28;20171;-81
2021/03/04 13:16:09;;;;;;;1999.90;999.90;;;8.50;99.90;;;;;;5040329;28;20228;-81